Eastend Cypress, Canada
Current Conditions -  °F | °C
As of 8:53 PM on Friday 24 Oct 2014 (Local Time) from KHVR Reporting Station
Clear Clear  
Wind Chill: 37°   Ceiling: Unl
Heat Index: 42°   Visibility: 10mi
Dew Point: 30°   Wind: 8mph
Humidity: 62%   Direction: 210°SSW
Pressure: 30.07"   Gusts: NA
Location:  49.43°N, 108.98°W
Report Text: KHVR 250253Z AUTO 21007KT 10SM CLR 06/M01 A3007 RMK AO2 SLP196 T00561011 51014
Loading
Personal Weather Stations






























Interactive Weather Map
Tropical Storm Tracking
New forecast layout! Learn more

10-Day Weather Forecast

Advertisements
Track Severe Weather on mobile